sensor_id;sensor_type;location;lat;lon;timestamp;temperature;humidity
42421;DHT22;28063;48.140;11.588;2023-05-10T00:00:33;13.90;99.90
42421;DHT22;28063;48.140;11.588;2023-05-10T00:02:59;13.90;99.90
42421;DHT22;28063;48.140;11.588;2023-05-10T00:05:25;13.90;99.90
42421;DHT22;28063;48.140;11.588;2023-05-10T00:07:50;13.90;99.90
42421;DHT22;28063;48.140;11.588;2023-05-10T00:10:16;13.90;99.90
42421;DHT22;28063;48.140;11.588;2023-05-10T00:12:42;13.90;99.90
42421;DHT22;28063;48.140;11.588;2023-05-10T00:15:08;13.90;99.90
42421;DHT22;28063;48.140;11.588;2023-05-10T00:17:34;13.90;99.90
42421;DHT22;28063;48.140;11.588;2023-05-10T00:20:00;13.90;99.90
42421;DHT22;28063;48.140;11.588;2023-05-10T00:22:26;13.90;99.90
42421;DHT22;28063;48.140;11.588;2023-05-10T00:24:51;13.90;99.90
42421;DHT22;28063;48.140;11.588;2023-05-10T00:27:17;13.90;99.90
42421;DHT22;28063;48.140;11.588;2023-05-10T00:29:42;13.90;99.90
42421;DHT22;28063;48.140;11.588;2023-05-10T00:32:08;13.90;99.90
42421;DHT22;28063;48.140;11.588;2023-05-10T00:34:34;13.80;99.90
42421;DHT22;28063;48.140;11.588;2023-05-10T00:36:59;13.80;99.90
42421;DHT22;28063;48.140;11.588;2023-05-10T00:39:25;13.80;99.90
42421;DHT22;28063;48.140;11.588;2023-05-10T00:41:52;13.80;99.90
42421;DHT22;28063;48.140;11.588;2023-05-10T00:44:17;13.80;99.90
42421;DHT22;28063;48.140;11.588;2023-05-10T00:46:44;13.80;99.90
42421;DHT22;28063;48.140;11.588;2023-05-10T00:49:10;13.80;99.90
42421;DHT22;28063;48.140;11.588;2023-05-10T00:51:36;13.80;99.90
42421;DHT22;28063;48.140;11.588;2023-05-10T00:54:02;13.80;99.90
42421;DHT22;28063;48.140;11.588;2023-05-10T00:56:28;13.80;99.90
42421;DHT22;28063;48.140;11.588;2023-05-10T00:58:55;13.70;99.90
42421;DHT22;28063;48.140;11.588;2023-05-10T01:01:21;13.70;99.90
42421;DHT22;28063;48.140;11.588;2023-05-10T01:03:48;13.70;99.90
42421;DHT22;28063;48.140;11.588;2023-05-10T01:06:14;13.70;99.90
42421;DHT22;28063;48.140;11.588;2023-05-10T01:08:39;13.70;99.90
42421;DHT22;28063;48.140;11.588;2023-05-10T01:11:06;13.70;99.90
42421;DHT22;28063;48.140;11.588;2023-05-10T01:13:39;13.70;99.90
42421;DHT22;28063;48.140;11.588;2023-05-10T01:16:06;13.70;99.90
42421;DHT22;28063;48.140;11.588;2023-05-10T01:18:38;13.70;99.90
42421;DHT22;28063;48.140;11.588;2023-05-10T01:35:30;13.70;99.90
42421;DHT22;28063;48.140;11.588;2023-05-10T01:38:11;13.70;99.90
42421;DHT22;28063;48.140;11.588;2023-05-10T01:40:42;13.70;99.90
42421;DHT22;28063;48.140;11.588;2023-05-10T01:43:21;13.60;99.90
42421;DHT22;28063;48.140;11.588;2023-05-10T01:46:02;13.60;99.90
42421;DHT22;28063;48.140;11.588;2023-05-10T01:48:40;13.60;99.90
42421;DHT22;28063;48.140;11.588;2023-05-10T01:51:10;13.60;99.90
42421;DHT22;28063;48.140;11.588;2023-05-10T01:53:37;13.60;99.90
42421;DHT22;28063;48.140;11.588;2023-05-10T01:56:04;13.60;99.90
42421;DHT22;28063;48.140;11.588;2023-05-10T01:58:31;13.60;99.90
42421;DHT22;28063;48.140;11.588;2023-05-10T02:01:00;13.60;99.90
42421;DHT22;28063;48.140;11.588;2023-05-10T02:03:30;13.60;99.90
42421;DHT22;28063;48.140;11.588;2023-05-10T02:05:57;13.60;99.90
42421;DHT22;28063;48.140;11.588;2023-05-10T02:08:24;13.60;99.90
42421;DHT22;28063;48.140;11.588;2023-05-10T02:10:55;13.60;99.90
42421;DHT22;28063;48.140;11.588;2023-05-10T02:13:23;13.60;99.90
42421;DHT22;28063;48.140;11.588;2023-05-10T02:15:50;13.50;99.90
42421;DHT22;28063;48.140;11.588;2023-05-10T02:18:18;13.60;99.90
42421;DHT22;28063;48.140;11.588;2023-05-10T02:20:45;13.60;99.90
42421;DHT22;28063;48.140;11.588;2023-05-10T02:23:13;13.50;99.90
42421;DHT22;28063;48.140;11.588;2023-05-10T02:25:40;13.60;99.90
42421;DHT22;28063;48.140;11.588;2023-05-10T02:28:07;13.60;99.90
42421;DHT22;28063;48.140;11.588;2023-05-10T02:30:34;13.60;99.90
42421;DHT22;28063;48.140;11.588;2023-05-10T02:33:01;13.50;99.90
42421;DHT22;28063;48.140;11.588;2023-05-10T02:35:28;13.60;99.90
42421;DHT22;28063;48.140;11.588;2023-05-10T02:37:54;13.50;99.90
42421;DHT22;28063;48.140;11.588;2023-05-10T02:40:21;13.50;99.90
42421;DHT22;28063;48.140;11.588;2023-05-10T02:42:50;13.50;99.90
42421;DHT22;28063;48.140;11.588;2023-05-10T02:45:20;13.50;99.90
42421;DHT22;28063;48.140;11.588;2023-05-10T02:47:47;13.50;99.90
42421;DHT22;28063;48.140;11.588;2023-05-10T02:50:13;13.50;99.90
42421;DHT22;28063;48.140;11.588;2023-05-10T02:52:44;13.50;99.90
42421;DHT22;28063;48.140;11.588;2023-05-10T02:55:15;13.50;99.90
42421;DHT22;28063;48.140;11.588;2023-05-10T02:57:51;13.50;99.90
42421;DHT22;28063;48.140;11.588;2023-05-10T03:00:17;13.50;99.90
42421;DHT22;28063;48.140;11.588;2023-05-10T03:02:43;13.50;99.90
42421;DHT22;28063;48.140;11.588;2023-05-10T03:05:08;13.50;99.90
42421;DHT22;28063;48.140;11.588;2023-05-10T03:07:34;13.50;99.90
42421;DHT22;28063;48.140;11.588;2023-05-10T03:10:01;13.50;99.90
42421;DHT22;28063;48.140;11.588;2023-05-10T03:17:35;13.40;99.90
42421;DHT22;28063;48.140;11.588;2023-05-10T03:20:10;13.40;99.90
42421;DHT22;28063;48.140;11.588;2023-05-10T03:22:50;13.40;99.90
42421;DHT22;28063;48.140;11.588;2023-05-10T03:25:17;13.50;99.90
42421;DHT22;28063;48.140;11.588;2023-05-10T03:27:44;13.40;99.90
42421;DHT22;28063;48.140;11.588;2023-05-10T03:30:12;13.40;99.90
42421;DHT22;28063;48.140;11.588;2023-05-10T03:32:38;13.50;99.90
42421;DHT22;28063;48.140;11.588;2023-05-10T03:35:08;13.40;99.90
42421;DHT22;28063;48.140;11.588;2023-05-10T03:37:34;13.50;99.90
42421;DHT22;28063;48.140;11.588;2023-05-10T03:40:00;13.50;99.90
42421;DHT22;28063;48.140;11.588;2023-05-10T03:42:25;13.50;99.90
42421;DHT22;28063;48.140;11.588;2023-05-10T03:44:51;13.40;99.90
42421;DHT22;28063;48.140;11.588;2023-05-10T03:47:17;13.50;99.90
42421;DHT22;28063;48.140;11.588;2023-05-10T03:49:42;13.40;99.90
42421;DHT22;28063;48.140;11.588;2023-05-10T03:52:08;13.40;99.90
42421;DHT22;28063;48.140;11.588;2023-05-10T03:54:34;13.40;99.90
42421;DHT22;28063;48.140;11.588;2023-05-10T03:56:59;13.40;99.90
42421;DHT22;28063;48.140;11.588;2023-05-10T03:59:26;13.40;99.90
42421;DHT22;28063;48.140;11.588;2023-05-10T04:01:52;13.40;99.90
42421;DHT22;28063;48.140;11.588;2023-05-10T04:04:17;13.40;99.90
42421;DHT22;28063;48.140;11.588;2023-05-10T04:06:46;13.40;99.90
42421;DHT22;28063;48.140;11.588;2023-05-10T04:09:11;13.40;99.90
42421;DHT22;28063;48.140;11.588;2023-05-10T04:11:37;13.40;99.90
42421;DHT22;28063;48.140;11.588;2023-05-10T04:14:03;13.50;99.90
42421;DHT22;28063;48.140;11.588;2023-05-10T04:16:28;13.50;99.90
42421;DHT22;28063;48.140;11.588;2023-05-10T04:18:54;13.50;99.90
42421;DHT22;28063;48.140;11.588;2023-05-10T04:21:20;13.50;99.90
42421;DHT22;28063;48.140;11.588;2023-05-10T04:23:45;13.50;99.90
42421;DHT22;28063;48.140;11.588;2023-05-10T04:26:11;13.60;99.90
42421;DHT22;28063;48.140;11.588;2023-05-10T04:28:37;13.60;99.90
42421;DHT22;28063;48.140;11.588;2023-05-10T04:31:04;13.60;99.90
42421;DHT22;28063;48.140;11.588;2023-05-10T04:33:30;13.60;99.90
42421;DHT22;28063;48.140;11.588;2023-05-10T04:35:56;13.60;99.90
42421;DHT22;28063;48.140;11.588;2023-05-10T04:38:22;13.60;99.90
42421;DHT22;28063;48.140;11.588;2023-05-10T04:40:47;13.60;99.90
42421;DHT22;28063;48.140;11.588;2023-05-10T04:43:13;13.60;99.90
42421;DHT22;28063;48.140;11.588;2023-05-10T04:45:39;13.60;99.90
42421;DHT22;28063;48.140;11.588;2023-05-10T04:48:05;13.60;99.90
42421;DHT22;28063;48.140;11.588;2023-05-10T04:50:31;13.50;99.90
42421;DHT22;28063;48.140;11.588;2023-05-10T04:52:57;13.50;99.90
42421;DHT22;28063;48.140;11.588;2023-05-10T04:55:22;13.50;99.90
42421;DHT22;28063;48.140;11.588;2023-05-10T04:57:48;13.40;99.90
42421;DHT22;28063;48.140;11.588;2023-05-10T05:00:14;13.30;99.90
42421;DHT22;28063;48.140;11.588;2023-05-10T05:02:43;13.20;99.90
42421;DHT22;28063;48.140;11.588;2023-05-10T05:05:11;13.10;99.90
42421;DHT22;28063;48.140;11.588;2023-05-10T05:07:36;13.00;99.90
42421;DHT22;28063;48.140;11.588;2023-05-10T05:10:07;13.00;99.90
42421;DHT22;28063;48.140;11.588;2023-05-10T05:12:33;13.00;99.90
42421;DHT22;28063;48.140;11.588;2023-05-10T05:14:59;13.00;99.90
42421;DHT22;28063;48.140;11.588;2023-05-10T05:17:24;13.00;99.90
42421;DHT22;28063;48.140;11.588;2023-05-10T05:19:50;12.90;99.90
42421;DHT22;28063;48.140;11.588;2023-05-10T05:22:16;12.90;99.90
42421;DHT22;28063;48.140;11.588;2023-05-10T05:24:42;12.90;99.90
42421;DHT22;28063;48.140;11.588;2023-05-10T05:27:08;12.90;99.90
42421;DHT22;28063;48.140;11.588;2023-05-10T05:29:34;12.90;99.90
42421;DHT22;28063;48.140;11.588;2023-05-10T05:31:59;12.90;99.90
42421;DHT22;28063;48.140;11.588;2023-05-10T05:34:25;12.80;99.90
42421;DHT22;28063;48.140;11.588;2023-05-10T05:36:51;12.70;99.90
42421;DHT22;28063;48.140;11.588;2023-05-10T05:39:17;12.60;99.90
42421;DHT22;28063;48.140;11.588;2023-05-10T05:41:42;12.50;99.90
42421;DHT22;28063;48.140;11.588;2023-05-10T05:44:08;12.40;99.90
42421;DHT22;28063;48.140;11.588;2023-05-10T05:46:35;12.30;99.90
42421;DHT22;28063;48.140;11.588;2023-05-10T05:49:00;12.20;99.90
42421;DHT22;28063;48.140;11.588;2023-05-10T05:51:26;12.10;99.90
42421;DHT22;28063;48.140;11.588;2023-05-10T05:53:52;12.00;99.90
42421;DHT22;28063;48.140;11.588;2023-05-10T05:56:18;12.00;99.90
42421;DHT22;28063;48.140;11.588;2023-05-10T05:58:50;12.10;99.90
42421;DHT22;28063;48.140;11.588;2023-05-10T06:01:15;12.10;99.90
42421;DHT22;28063;48.140;11.588;2023-05-10T06:03:41;12.20;99.90
42421;DHT22;28063;48.140;11.588;2023-05-10T06:06:07;12.30;99.90
42421;DHT22;28063;48.140;11.588;2023-05-10T06:08:33;12.40;99.90
42421;DHT22;28063;48.140;11.588;2023-05-10T06:10:59;12.40;99.90
42421;DHT22;28063;48.140;11.588;2023-05-10T06:13:25;12.50;99.90
42421;DHT22;28063;48.140;11.588;2023-05-10T06:15:59;12.60;99.90
42421;DHT22;28063;48.140;11.588;2023-05-10T06:18:25;12.70;99.90
42421;DHT22;28063;48.140;11.588;2023-05-10T06:20:51;12.80;99.90
42421;DHT22;28063;48.140;11.588;2023-05-10T06:23:17;12.90;99.90
42421;DHT22;28063;48.140;11.588;2023-05-10T06:25:43;13.00;99.90
42421;DHT22;28063;48.140;11.588;2023-05-10T06:28:09;13.10;99.90
42421;DHT22;28063;48.140;11.588;2023-05-10T06:30:36;13.10;99.90
42421;DHT22;28063;48.140;11.588;2023-05-10T06:33:02;13.20;99.90
42421;DHT22;28063;48.140;11.588;2023-05-10T06:35:28;13.20;99.90
42421;DHT22;28063;48.140;11.588;2023-05-10T06:37:54;13.30;99.90
42421;DHT22;28063;48.140;11.588;2023-05-10T06:40:20;13.30;99.90
42421;DHT22;28063;48.140;11.588;2023-05-10T06:42:47;13.40;99.90
42421;DHT22;28063;48.140;11.588;2023-05-10T06:45:14;13.50;99.90
42421;DHT22;28063;48.140;11.588;2023-05-10T06:47:40;13.60;99.90
42421;DHT22;28063;48.140;11.588;2023-05-10T06:50:08;13.60;99.90
42421;DHT22;28063;48.140;11.588;2023-05-10T06:52:34;13.90;99.90
42421;DHT22;28063;48.140;11.588;2023-05-10T06:54:59;14.20;99.90
42421;DHT22;28063;48.140;11.588;2023-05-10T06:57:25;14.40;99.90
42421;DHT22;28063;48.140;11.588;2023-05-10T06:59:51;14.50;99.90
42421;DHT22;28063;48.140;11.588;2023-05-10T07:02:17;14.60;99.90
42421;DHT22;28063;48.140;11.588;2023-05-10T07:04:43;14.60;99.90
42421;DHT22;28063;48.140;11.588;2023-05-10T07:07:09;14.70;99.90
42421;DHT22;28063;48.140;11.588;2023-05-10T07:09:35;14.80;99.90
42421;DHT22;28063;48.140;11.588;2023-05-10T07:12:00;14.70;99.90
42421;DHT22;28063;48.140;11.588;2023-05-10T07:14:27;14.60;99.90
42421;DHT22;28063;48.140;11.588;2023-05-10T07:16:53;14.40;99.90
42421;DHT22;28063;48.140;11.588;2023-05-10T07:19:18;14.30;99.90
42421;DHT22;28063;48.140;11.588;2023-05-10T07:21:45;14.30;99.90
42421;DHT22;28063;48.140;11.588;2023-05-10T07:24:11;14.20;99.90
42421;DHT22;28063;48.140;11.588;2023-05-10T07:26:36;14.30;99.90
42421;DHT22;28063;48.140;11.588;2023-05-10T07:29:02;14.60;99.90
42421;DHT22;28063;48.140;11.588;2023-05-10T07:31:28;14.90;99.90
42421;DHT22;28063;48.140;11.588;2023-05-10T07:33:54;15.30;99.90
42421;DHT22;28063;48.140;11.588;2023-05-10T07:36:20;15.70;99.90
42421;DHT22;28063;48.140;11.588;2023-05-10T07:38:45;16.00;99.90
42421;DHT22;28063;48.140;11.588;2023-05-10T07:41:12;16.20;98.70
42421;DHT22;28063;48.140;11.588;2023-05-10T07:43:37;16.30;97.10
42421;DHT22;28063;48.140;11.588;2023-05-10T07:46:03;16.00;97.00
42421;DHT22;28063;48.140;11.588;2023-05-10T07:48:29;15.80;96.90
42421;DHT22;28063;48.140;11.588;2023-05-10T07:50:55;15.60;97.40
42421;DHT22;28063;48.140;11.588;2023-05-10T07:53:21;15.70;97.60
42421;DHT22;28063;48.140;11.588;2023-05-10T07:55:51;16.00;97.50
42421;DHT22;28063;48.140;11.588;2023-05-10T07:58:17;16.50;97.10
42421;DHT22;28063;48.140;11.588;2023-05-10T08:00:44;16.80;95.20
42421;DHT22;28063;48.140;11.588;2023-05-10T08:03:11;17.00;94.50
42421;DHT22;28063;48.140;11.588;2023-05-10T08:05:45;17.20;93.10
42421;DHT22;28063;48.140;11.588;2023-05-10T08:08:11;17.30;92.80
42421;DHT22;28063;48.140;11.588;2023-05-10T08:10:47;17.30;91.30
42421;DHT22;28063;48.140;11.588;2023-05-10T08:13:13;17.50;92.50
42421;DHT22;28063;48.140;11.588;2023-05-10T08:15:39;17.80;91.70
42421;DHT22;28063;48.140;11.588;2023-05-10T08:18:07;18.10;90.60
42421;DHT22;28063;48.140;11.588;2023-05-10T08:20:33;18.20;90.30
42421;DHT22;28063;48.140;11.588;2023-05-10T08:22:59;18.30;88.50
42421;DHT22;28063;48.140;11.588;2023-05-10T08:25:27;18.10;87.10
42421;DHT22;28063;48.140;11.588;2023-05-10T08:27:53;18.10;87.30
42421;DHT22;28063;48.140;11.588;2023-05-10T08:30:19;18.20;87.00
42421;DHT22;28063;48.140;11.588;2023-05-10T08:32:45;18.40;87.20
42421;DHT22;28063;48.140;11.588;2023-05-10T08:35:11;18.60;85.90
42421;DHT22;28063;48.140;11.588;2023-05-10T08:37:37;18.60;83.80
42421;DHT22;28063;48.140;11.588;2023-05-10T08:40:03;18.40;83.00
42421;DHT22;28063;48.140;11.588;2023-05-10T08:42:31;17.90;84.10
42421;DHT22;28063;48.140;11.588;2023-05-10T08:45:00;17.50;85.70
42421;DHT22;28063;48.140;11.588;2023-05-10T08:49:54;16.60;88.30
42421;DHT22;28063;48.140;11.588;2023-05-10T08:52:21;16.40;90.40
42421;DHT22;28063;48.140;11.588;2023-05-10T08:54:51;16.30;91.10
42421;DHT22;28063;48.140;11.588;2023-05-10T08:57:18;16.30;91.30
42421;DHT22;28063;48.140;11.588;2023-05-10T08:59:45;16.40;90.40
42421;DHT22;28063;48.140;11.588;2023-05-10T09:02:12;16.40;90.50
42421;DHT22;28063;48.140;11.588;2023-05-10T09:04:38;16.30;91.00
42421;DHT22;28063;48.140;11.588;2023-05-10T09:07:04;16.10;91.30
42421;DHT22;28063;48.140;11.588;2023-05-10T09:09:30;16.00;92.10
42421;DHT22;28063;48.140;11.588;2023-05-10T09:11:57;15.90;92.70
42421;DHT22;28063;48.140;11.588;2023-05-10T09:14:24;16.00;93.30
42421;DHT22;28063;48.140;11.588;2023-05-10T09:16:50;16.00;92.90
42421;DHT22;28063;48.140;11.588;2023-05-10T09:19:16;16.10;92.90
42421;DHT22;28063;48.140;11.588;2023-05-10T09:21:41;16.30;93.20
42421;DHT22;28063;48.140;11.588;2023-05-10T09:24:08;17.00;92.20
42421;DHT22;28063;48.140;11.588;2023-05-10T09:26:35;17.60;91.10
42421;DHT22;28063;48.140;11.588;2023-05-10T09:29:02;17.70;89.80
42421;DHT22;28063;48.140;11.588;2023-05-10T09:31:47;17.70;88.30
42421;DHT22;28063;48.140;11.588;2023-05-10T09:34:28;17.50;89.50
42421;DHT22;28063;48.140;11.588;2023-05-10T09:36:57;17.40;88.10
42421;DHT22;28063;48.140;11.588;2023-05-10T09:39:33;17.30;88.70
42421;DHT22;28063;48.140;11.588;2023-05-10T09:42:01;17.20;87.80
42421;DHT22;28063;48.140;11.588;2023-05-10T09:44:29;17.30;87.30
42421;DHT22;28063;48.140;11.588;2023-05-10T09:46:55;17.70;85.60
42421;DHT22;28063;48.140;11.588;2023-05-10T09:49:24;18.10;85.80
42421;DHT22;28063;48.140;11.588;2023-05-10T09:52:04;18.70;83.60
42421;DHT22;28063;48.140;11.588;2023-05-10T09:54:31;19.10;81.70
42421;DHT22;28063;48.140;11.588;2023-05-10T09:56:57;19.30;79.00
42421;DHT22;28063;48.140;11.588;2023-05-10T09:59:28;19.20;77.40
42421;DHT22;28063;48.140;11.588;2023-05-10T10:01:58;19.20;78.10
42421;DHT22;28063;48.140;11.588;2023-05-10T10:04:24;19.50;78.00
42421;DHT22;28063;48.140;11.588;2023-05-10T10:07:02;19.80;75.70
42421;DHT22;28063;48.140;11.588;2023-05-10T10:09:28;19.80;76.00
42421;DHT22;28063;48.140;11.588;2023-05-10T10:11:54;19.80;73.40
42421;DHT22;28063;48.140;11.588;2023-05-10T10:14:22;19.60;74.10
42421;DHT22;28063;48.140;11.588;2023-05-10T10:16:49;19.40;74.50
42421;DHT22;28063;48.140;11.588;2023-05-10T10:19:18;19.30;74.90
42421;DHT22;28063;48.140;11.588;2023-05-10T10:21:43;19.50;74.30
42421;DHT22;28063;48.140;11.588;2023-05-10T10:24:09;19.50;72.50
42421;DHT22;28063;48.140;11.588;2023-05-10T10:26:36;19.30;72.90
42421;DHT22;28063;48.140;11.588;2023-05-10T10:29:10;18.70;74.70
42421;DHT22;28063;48.140;11.588;2023-05-10T10:31:55;18.40;76.10
42421;DHT22;28063;48.140;11.588;2023-05-10T10:34:28;17.90;76.90
42421;DHT22;28063;48.140;11.588;2023-05-10T10:36:56;17.50;77.00
42421;DHT22;28063;48.140;11.588;2023-05-10T10:39:23;17.50;78.60
42421;DHT22;28063;48.140;11.588;2023-05-10T10:41:54;17.80;79.10
42421;DHT22;28063;48.140;11.588;2023-05-10T10:44:33;18.40;78.30
42421;DHT22;28063;48.140;11.588;2023-05-10T10:49:50;19.50;74.70
42421;DHT22;28063;48.140;11.588;2023-05-10T10:52:24;19.90;72.90
42421;DHT22;28063;48.140;11.588;2023-05-10T10:57:30;20.10;70.10
42421;DHT22;28063;48.140;11.588;2023-05-10T11:07:59;18.70;72.70
42421;DHT22;28063;48.140;11.588;2023-05-10T11:10:26;18.40;74.50
42421;DHT22;28063;48.140;11.588;2023-05-10T11:13:02;18.30;76.70
42421;DHT22;28063;48.140;11.588;2023-05-10T11:15:32;18.30;75.20
42421;DHT22;28063;48.140;11.588;2023-05-10T11:17:58;18.30;76.50
42421;DHT22;28063;48.140;11.588;2023-05-10T11:20:27;18.30;76.50
42421;DHT22;28063;48.140;11.588;2023-05-10T11:23:10;18.30;77.10
42421;DHT22;28063;48.140;11.588;2023-05-10T11:25:44;18.20;78.60
42421;DHT22;28063;48.140;11.588;2023-05-10T11:28:13;18.00;80.10
42421;DHT22;28063;48.140;11.588;2023-05-10T11:30:41;17.80;81.80
42421;DHT22;28063;48.140;11.588;2023-05-10T11:33:07;17.70;83.20
42421;DHT22;28063;48.140;11.588;2023-05-10T11:35:37;17.40;84.40
42421;DHT22;28063;48.140;11.588;2023-05-10T11:38:08;17.20;86.30
42421;DHT22;28063;48.140;11.588;2023-05-10T11:40:35;16.90;87.90
42421;DHT22;28063;48.140;11.588;2023-05-10T11:43:02;16.70;89.00
42421;DHT22;28063;48.140;11.588;2023-05-10T11:45:29;16.40;90.20
42421;DHT22;28063;48.140;11.588;2023-05-10T11:47:58;16.10;90.80
42421;DHT22;28063;48.140;11.588;2023-05-10T11:50:24;15.80;91.20
42421;DHT22;28063;48.140;11.588;2023-05-10T11:53:00;15.60;91.60
42421;DHT22;28063;48.140;11.588;2023-05-10T11:55:25;15.40;92.20
42421;DHT22;28063;48.140;11.588;2023-05-10T11:57:52;15.30;92.70
42421;DHT22;28063;48.140;11.588;2023-05-10T12:00:18;15.20;93.20
42421;DHT22;28063;48.140;11.588;2023-05-10T12:02:44;15.20;93.50
42421;DHT22;28063;48.140;11.588;2023-05-10T12:05:10;15.20;93.70
42421;DHT22;28063;48.140;11.588;2023-05-10T12:07:36;15.10;93.70
42421;DHT22;28063;48.140;11.588;2023-05-10T12:12:36;15.10;93.00
42421;DHT22;28063;48.140;11.588;2023-05-10T12:15:02;15.10;93.20
42421;DHT22;28063;48.140;11.588;2023-05-10T12:17:29;15.10;93.40
42421;DHT22;28063;48.140;11.588;2023-05-10T12:20:12;15.00;93.80
42421;DHT22;28063;48.140;11.588;2023-05-10T12:22:38;14.90;94.20
42421;DHT22;28063;48.140;11.588;2023-05-10T12:25:03;14.70;94.90
42421;DHT22;28063;48.140;11.588;2023-05-10T12:27:32;14.60;95.80
42421;DHT22;28063;48.140;11.588;2023-05-10T12:29:59;14.50;96.40
42421;DHT22;28063;48.140;11.588;2023-05-10T12:32:40;14.40;96.70
42421;DHT22;28063;48.140;11.588;2023-05-10T12:35:07;14.30;97.20
42421;DHT22;28063;48.140;11.588;2023-05-10T12:37:32;14.30;97.70
42421;DHT22;28063;48.140;11.588;2023-05-10T12:40:07;14.40;98.00
42421;DHT22;28063;48.140;11.588;2023-05-10T12:42:34;14.50;97.80
42421;DHT22;28063;48.140;11.588;2023-05-10T12:45:01;14.50;97.80
42421;DHT22;28063;48.140;11.588;2023-05-10T12:47:28;14.50;97.50
42421;DHT22;28063;48.140;11.588;2023-05-10T12:49:53;14.60;97.80
42421;DHT22;28063;48.140;11.588;2023-05-10T12:52:19;14.70;97.60
42421;DHT22;28063;48.140;11.588;2023-05-10T12:54:45;14.70;97.40
42421;DHT22;28063;48.140;11.588;2023-05-10T12:57:11;14.70;97.70
42421;DHT22;28063;48.140;11.588;2023-05-10T12:59:37;14.70;97.50
42421;DHT22;28063;48.140;11.588;2023-05-10T13:02:02;14.70;98.10
42421;DHT22;28063;48.140;11.588;2023-05-10T13:06:54;14.90;97.90
42421;DHT22;28063;48.140;11.588;2023-05-10T13:09:26;14.90;98.20
42421;DHT22;28063;48.140;11.588;2023-05-10T13:11:52;14.90;98.20
42421;DHT22;28063;48.140;11.588;2023-05-10T13:14:19;15.00;98.50
42421;DHT22;28063;48.140;11.588;2023-05-10T13:16:46;15.10;97.80
42421;DHT22;28063;48.140;11.588;2023-05-10T13:19:13;15.00;97.60
42421;DHT22;28063;48.140;11.588;2023-05-10T13:21:39;15.00;97.60
42421;DHT22;28063;48.140;11.588;2023-05-10T13:24:06;15.00;97.50
42421;DHT22;28063;48.140;11.588;2023-05-10T13:26:32;15.10;97.80
42421;DHT22;28063;48.140;11.588;2023-05-10T13:28:58;15.20;97.40
42421;DHT22;28063;48.140;11.588;2023-05-10T13:31:24;15.30;96.90
42421;DHT22;28063;48.140;11.588;2023-05-10T13:33:50;15.30;96.90
42421;DHT22;28063;48.140;11.588;2023-05-10T13:36:15;15.40;97.00
42421;DHT22;28063;48.140;11.588;2023-05-10T13:38:41;15.40;96.60
42421;DHT22;28063;48.140;11.588;2023-05-10T13:41:06;15.40;96.60
42421;DHT22;28063;48.140;11.588;2023-05-10T13:43:32;15.50;96.70
42421;DHT22;28063;48.140;11.588;2023-05-10T13:45:58;15.50;97.20
42421;DHT22;28063;48.140;11.588;2023-05-10T13:48:23;15.60;96.80
42421;DHT22;28063;48.140;11.588;2023-05-10T13:50:49;15.40;96.60
42421;DHT22;28063;48.140;11.588;2023-05-10T13:53:15;15.30;96.80
42421;DHT22;28063;48.140;11.588;2023-05-10T13:55:41;15.30;97.10
42421;DHT22;28063;48.140;11.588;2023-05-10T13:58:07;15.20;97.50
42421;DHT22;28063;48.140;11.588;2023-05-10T14:00:32;15.10;97.60
42421;DHT22;28063;48.140;11.588;2023-05-10T14:02:58;15.10;97.80
42421;DHT22;28063;48.140;11.588;2023-05-10T14:05:24;15.10;98.00
42421;DHT22;28063;48.140;11.588;2023-05-10T14:07:52;15.10;98.10
42421;DHT22;28063;48.140;11.588;2023-05-10T14:10:17;15.20;98.00
42421;DHT22;28063;48.140;11.588;2023-05-10T14:12:43;15.20;98.30
42421;DHT22;28063;48.140;11.588;2023-05-10T14:15:09;15.20;98.00
42421;DHT22;28063;48.140;11.588;2023-05-10T14:17:36;15.10;98.10
42421;DHT22;28063;48.140;11.588;2023-05-10T14:20:02;15.10;98.00
42421;DHT22;28063;48.140;11.588;2023-05-10T14:22:29;15.10;98.10
42421;DHT22;28063;48.140;11.588;2023-05-10T14:24:54;15.10;97.80
42421;DHT22;28063;48.140;11.588;2023-05-10T14:27:20;15.30;97.90
42421;DHT22;28063;48.140;11.588;2023-05-10T14:29:47;15.40;97.90
42421;DHT22;28063;48.140;11.588;2023-05-10T14:32:13;15.30;97.70
42421;DHT22;28063;48.140;11.588;2023-05-10T14:34:38;15.20;97.90
42421;DHT22;28063;48.140;11.588;2023-05-10T14:37:04;15.20;98.00
42421;DHT22;28063;48.140;11.588;2023-05-10T14:39:30;15.30;97.90
42421;DHT22;28063;48.140;11.588;2023-05-10T14:41:56;15.30;97.70
42421;DHT22;28063;48.140;11.588;2023-05-10T14:44:21;15.20;97.60
42421;DHT22;28063;48.140;11.588;2023-05-10T14:46:48;15.10;97.60
42421;DHT22;28063;48.140;11.588;2023-05-10T14:49:15;15.10;97.70
42421;DHT22;28063;48.140;11.588;2023-05-10T14:51:43;15.00;97.80
42421;DHT22;28063;48.140;11.588;2023-05-10T14:54:10;14.80;97.60
42421;DHT22;28063;48.140;11.588;2023-05-10T14:56:35;14.70;97.90
42421;DHT22;28063;48.140;11.588;2023-05-10T14:59:02;14.40;98.00
42421;DHT22;28063;48.140;11.588;2023-05-10T15:01:29;14.30;98.80
42421;DHT22;28063;48.140;11.588;2023-05-10T15:03:55;14.20;99.30
42421;DHT22;28063;48.140;11.588;2023-05-10T15:06:29;14.30;99.80
42421;DHT22;28063;48.140;11.588;2023-05-10T15:08:55;14.30;99.90
42421;DHT22;28063;48.140;11.588;2023-05-10T15:11:21;14.30;99.90
42421;DHT22;28063;48.140;11.588;2023-05-10T15:13:47;14.30;99.90
42421;DHT22;28063;48.140;11.588;2023-05-10T15:16:12;14.30;99.80
42421;DHT22;28063;48.140;11.588;2023-05-10T15:18:38;14.30;99.90
42421;DHT22;28063;48.140;11.588;2023-05-10T15:21:03;14.20;99.90
42421;DHT22;28063;48.140;11.588;2023-05-10T15:23:29;14.20;99.90
42421;DHT22;28063;48.140;11.588;2023-05-10T15:25:55;14.30;99.90
42421;DHT22;28063;48.140;11.588;2023-05-10T15:28:21;14.30;99.90
42421;DHT22;28063;48.140;11.588;2023-05-10T15:30:47;14.30;99.90
42421;DHT22;28063;48.140;11.588;2023-05-10T15:33:13;14.30;99.90
42421;DHT22;28063;48.140;11.588;2023-05-10T15:35:39;14.30;99.90
42421;DHT22;28063;48.140;11.588;2023-05-10T15:38:05;14.30;99.90
42421;DHT22;28063;48.140;11.588;2023-05-10T15:40:31;14.20;99.90
42421;DHT22;28063;48.140;11.588;2023-05-10T15:42:57;14.20;99.90
42421;DHT22;28063;48.140;11.588;2023-05-10T15:45:22;14.10;99.90
42421;DHT22;28063;48.140;11.588;2023-05-10T15:47:48;14.00;99.90
42421;DHT22;28063;48.140;11.588;2023-05-10T15:50:14;14.00;99.90
42421;DHT22;28063;48.140;11.588;2023-05-10T15:52:41;13.80;99.90
42421;DHT22;28063;48.140;11.588;2023-05-10T15:55:08;13.70;99.90